createdAt,value
2023-05-04T00:00:35.161Z,13.86
2023-05-04T00:03:03.497Z,13.82
2023-05-04T00:05:31.883Z,13.84
2023-05-04T00:08:00.196Z,14.11
2023-05-04T00:10:29.184Z,14.42
2023-05-04T00:12:57.428Z,14.08
2023-05-04T00:15:26.113Z,13.29
2023-05-04T00:17:55.837Z,13.01
2023-05-04T00:20:24.223Z,13.39
2023-05-04T00:22:52.501Z,13.72
2023-05-04T00:25:20.777Z,13.96
2023-05-04T00:27:49.051Z,14.21
2023-05-04T00:30:17.532Z,14.18
2023-05-04T00:32:46.611Z,13.80
2023-05-04T00:35:16.437Z,13.86
2023-05-04T00:37:46.149Z,14.09
2023-05-04T00:40:14.721Z,14.21
2023-05-04T00:42:43.012Z,14.30
2023-05-04T00:45:12.252Z,14.35
2023-05-04T00:47:40.815Z,14.04
2023-05-04T00:50:10.376Z,13.97
2023-05-04T00:52:41.459Z,13.91
2023-05-04T00:55:10.997Z,14.08
2023-05-04T00:57:39.983Z,14.27
2023-05-04T01:00:10.818Z,14.33
2023-05-04T01:02:39.088Z,14.39
2023-05-04T01:05:09.237Z,13.73
2023-05-04T01:07:49.140Z,14.38
2023-05-04T01:10:23.959Z,14.42
2023-05-04T01:12:57.634Z,14.27
2023-05-04T01:15:26.768Z,14.29
2023-05-04T01:17:55.071Z,14.41
2023-05-04T01:20:23.334Z,14.23
2023-05-04T01:22:53.165Z,14.49
2023-05-04T01:25:21.794Z,14.52
2023-05-04T01:27:57.964Z,14.37
2023-05-04T01:30:31.683Z,14.16
2023-05-04T01:33:01.941Z,14.39
2023-05-04T01:35:30.493Z,14.35
2023-05-04T01:38:00.742Z,14.36
2023-05-04T01:40:29.148Z,14.36
2023-05-04T01:42:57.419Z,14.52
2023-05-04T01:45:25.707Z,14.45
2023-05-04T01:47:53.952Z,14.33
2023-05-04T01:50:22.152Z,13.98
2023-05-04T01:52:50.934Z,13.63
2023-05-04T01:55:20.629Z,13.68
2023-05-04T01:57:48.848Z,13.87
2023-05-04T02:00:17.464Z,13.55
2023-05-04T02:02:45.815Z,13.65
2023-05-04T02:05:14.267Z,13.82
2023-05-04T02:07:42.519Z,13.72
2023-05-04T02:10:11.513Z,13.72
2023-05-04T02:12:43.194Z,13.56
2023-05-04T02:15:12.470Z,12.82
2023-05-04T02:17:40.821Z,13.70
2023-05-04T02:20:10.816Z,14.10
2023-05-04T02:22:39.184Z,14.19
2023-05-04T02:25:08.562Z,14.36
2023-05-04T02:27:36.940Z,13.89
2023-05-04T02:30:07.944Z,13.84
2023-05-04T02:32:36.527Z,13.64
2023-05-04T02:35:05.056Z,13.36
2023-05-04T02:37:33.367Z,13.23
2023-05-04T02:40:01.990Z,13.49
2023-05-04T02:42:30.383Z,13.25
2023-05-04T02:44:58.697Z,13.38
2023-05-04T02:47:28.377Z,13.60
2023-05-04T02:49:56.624Z,13.84
2023-05-04T02:52:24.894Z,13.62
2023-05-04T02:54:53.367Z,13.86
2023-05-04T02:57:21.734Z,14.07
2023-05-04T02:59:50.012Z,14.16
2023-05-04T03:02:18.340Z,13.82
2023-05-04T03:04:47.998Z,14.11
2023-05-04T03:07:16.221Z,14.24
2023-05-04T03:09:47.408Z,14.26
2023-05-04T03:12:16.136Z,14.34
2023-05-04T03:14:44.471Z,14.41
2023-05-04T03:17:12.763Z,14.44
2023-05-04T03:19:41.219Z,14.44
2023-05-04T03:22:10.854Z,14.42
2023-05-04T03:24:40.078Z,14.37
2023-05-04T03:27:09.104Z,14.40
2023-05-04T03:29:37.382Z,14.45
2023-05-04T03:32:06.164Z,14.46
2023-05-04T03:34:34.521Z,14.49
2023-05-04T03:37:02.986Z,14.47
2023-05-04T03:39:32.708Z,14.57
2023-05-04T03:42:01.106Z,14.53
2023-05-04T03:44:29.413Z,14.44
2023-05-04T03:46:57.844Z,14.37
2023-05-04T03:49:26.282Z,14.48
2023-05-04T03:51:54.505Z,14.57
2023-05-04T03:54:22.810Z,14.11
2023-05-04T03:56:52.434Z,14.13
2023-05-04T03:59:20.656Z,13.90
2023-05-04T04:01:49.037Z,13.76
2023-05-04T04:04:17.386Z,13.81
2023-05-04T04:06:46.043Z,13.93
2023-05-04T04:09:14.355Z,13.34
2023-05-04T04:11:42.784Z,13.04
2023-05-04T04:14:12.543Z,12.60
2023-05-04T04:16:40.948Z,12.86
2023-05-04T04:19:09.751Z,13.05
2023-05-04T04:21:38.252Z,13.12
2023-05-04T04:24:07.199Z,13.37
2023-05-04T04:26:35.696Z,13.51
2023-05-04T04:29:05.053Z,13.21
2023-05-04T04:31:34.722Z,12.83
2023-05-04T04:34:03.109Z,12.59
2023-05-04T04:36:31.467Z,12.55
2023-05-04T04:38:59.804Z,12.44
2023-05-04T04:41:28.333Z,12.49
2023-05-04T04:43:56.955Z,12.37
2023-05-04T04:46:25.219Z,12.53
2023-05-04T04:48:55.725Z,12.70
2023-05-04T04:51:24.127Z,13.24
2023-05-04T04:53:52.487Z,13.23
2023-05-04T04:56:21.732Z,13.05
2023-05-04T04:58:51.118Z,13.11
2023-05-04T05:01:19.525Z,13.57
2023-05-04T05:03:49.257Z,13.83
2023-05-04T05:06:18.941Z,14.18
2023-05-04T05:08:47.181Z,14.36
2023-05-04T05:11:15.435Z,14.46
2023-05-04T05:13:43.703Z,14.28
2023-05-04T05:16:11.978Z,13.94
2023-05-04T05:18:40.299Z,13.73
2023-05-04T05:21:09.471Z,13.97
2023-05-04T05:23:39.189Z,13.60
2023-05-04T05:26:07.659Z,13.95
2023-05-04T05:28:35.890Z,14.03
2023-05-04T05:31:04.339Z,14.15
2023-05-04T05:33:32.837Z,14.32
2023-05-04T05:36:01.175Z,14.23
2023-05-04T05:38:29.392Z,14.38
2023-05-04T05:40:59.137Z,14.54
2023-05-04T05:43:27.490Z,14.84
2023-05-04T05:45:55.719Z,14.81
2023-05-04T05:48:24.184Z,14.93
2023-05-04T05:50:52.434Z,14.96
2023-05-04T05:53:20.826Z,14.67
2023-05-04T05:55:49.230Z,14.73
2023-05-04T05:58:18.989Z,14.90
2023-05-04T06:00:47.557Z,14.90
2023-05-04T06:03:16.042Z,14.83
2023-05-04T06:05:44.343Z,15.06
2023-05-04T06:08:12.649Z,14.88
2023-05-04T06:10:40.977Z,15.19
2023-05-04T06:13:09.354Z,15.13
2023-05-04T06:15:39.203Z,15.17
2023-05-04T06:18:07.745Z,15.20
2023-05-04T06:20:36.224Z,15.32
2023-05-04T06:23:04.578Z,15.33
2023-05-04T06:25:32.897Z,15.18
2023-05-04T06:28:01.304Z,15.21
2023-05-04T06:30:29.659Z,15.16
2023-05-04T06:32:59.539Z,14.78
2023-05-04T06:35:29.869Z,15.11
2023-05-04T06:37:58.647Z,15.28
2023-05-04T06:40:27.824Z,15.38
2023-05-04T06:42:56.120Z,15.71
2023-05-04T06:45:24.438Z,15.68
2023-05-04T06:47:53.662Z,15.97
2023-05-04T06:50:24.138Z,16.04
2023-05-04T06:52:52.939Z,16.04
2023-05-04T06:55:21.337Z,16.04
2023-05-04T06:57:49.620Z,16.03
2023-05-04T07:00:18.783Z,15.71
2023-05-04T07:02:47.237Z,15.76
2023-05-04T07:05:15.580Z,15.64
2023-05-04T07:07:45.339Z,15.83
2023-05-04T07:10:15.142Z,15.94
2023-05-04T07:12:43.567Z,16.44
2023-05-04T07:15:12.507Z,16.35
2023-05-04T07:17:41.458Z,16.80
2023-05-04T07:20:10.557Z,16.76
2023-05-04T07:22:38.922Z,16.60
2023-05-04T07:25:09.960Z,16.33
2023-05-04T07:27:43.903Z,16.44
2023-05-04T07:30:12.712Z,16.48
2023-05-04T07:32:41.155Z,16.09
2023-05-04T07:35:10.184Z,16.33
2023-05-04T07:37:38.404Z,16.68
2023-05-04T07:40:09.709Z,16.84
2023-05-04T07:42:38.161Z,16.19
2023-05-04T07:45:08.574Z,16.51
2023-05-04T07:47:36.985Z,16.55
2023-05-04T07:50:06.024Z,17.06
2023-05-04T07:52:34.854Z,17.09
2023-05-04T07:55:03.198Z,17.66
2023-05-04T07:57:33.682Z,17.72
2023-05-04T08:00:02.018Z,18.10
2023-05-04T08:02:30.454Z,18.33
2023-05-04T08:04:58.887Z,18.56
2023-05-04T08:07:27.192Z,18.82
2023-05-04T08:09:57.026Z,18.35
2023-05-04T08:12:27.132Z,18.15
2023-05-04T08:14:56.849Z,17.58
2023-05-04T08:17:25.180Z,17.68
2023-05-04T08:19:53.505Z,18.56
2023-05-04T08:22:21.798Z,18.34
2023-05-04T08:24:50.298Z,18.07
2023-05-04T08:27:18.615Z,18.52
2023-05-04T08:29:46.898Z,18.61
2023-05-04T08:32:17.622Z,19.36
2023-05-04T08:34:45.932Z,19.01
2023-05-04T08:37:14.394Z,19.31
2023-05-04T08:39:42.855Z,18.69
2023-05-04T08:42:11.950Z,19.08
2023-05-04T08:44:41.591Z,18.95
2023-05-04T08:47:11.239Z,19.74
2023-05-04T08:49:40.932Z,18.07
2023-05-04T08:52:11.154Z,17.71
2023-05-04T08:54:42.919Z,18.56
2023-05-04T08:57:12.034Z,18.74
2023-05-04T08:59:41.804Z,19.18
2023-05-04T09:02:14.860Z,19.63
2023-05-04T09:04:44.596Z,19.35
2023-05-04T09:07:13.269Z,19.37
2023-05-04T09:09:41.755Z,19.11
2023-05-04T09:12:10.133Z,18.72
2023-05-04T09:14:38.483Z,18.81
2023-05-04T09:17:14.885Z,18.91
2023-05-04T09:19:45.010Z,18.94
2023-05-04T09:22:17.365Z,18.74
2023-05-04T09:24:46.612Z,18.88
2023-05-04T09:27:18.158Z,18.88
2023-05-04T09:29:54.935Z,18.55
2023-05-04T09:32:24.265Z,18.68
2023-05-04T09:34:55.648Z,18.48
2023-05-04T09:37:24.185Z,18.66
2023-05-04T09:39:55.427Z,18.44
2023-05-04T09:42:24.427Z,18.70
2023-05-04T09:45:11.178Z,19.04
2023-05-04T09:47:43.630Z,18.40
2023-05-04T09:50:20.741Z,18.28
2023-05-04T09:52:50.403Z,18.21
2023-05-04T09:55:20.236Z,17.57
2023-05-04T09:57:50.349Z,17.73
2023-05-04T10:00:19.871Z,17.92
2023-05-04T10:03:07.224Z,17.71
2023-05-04T10:05:40.103Z,18.08
2023-05-04T10:08:10.006Z,18.07
2023-05-04T10:10:40.664Z,18.35
2023-05-04T10:13:09.250Z,18.73
2023-05-04T10:15:51.656Z,18.40
2023-05-04T10:18:31.409Z,18.48
2023-05-04T10:21:18.437Z,18.80
2023-05-04T10:24:16.942Z,19.51
2023-05-04T10:26:59.777Z,19.19
2023-05-04T10:29:30.301Z,19.68
2023-05-04T10:31:59.754Z,19.74
2023-05-04T10:34:30.018Z,20.01
2023-05-04T10:37:00.346Z,20.45
2023-05-04T10:39:30.951Z,20.95
2023-05-04T10:42:00.638Z,20.97
2023-05-04T10:44:29.768Z,21.12
2023-05-04T10:46:59.892Z,21.10
2023-05-04T10:49:28.549Z,20.91
2023-05-04T10:52:09.538Z,21.10
2023-05-04T10:54:38.460Z,22.53
2023-05-04T10:57:08.249Z,22.47
2023-05-04T10:59:37.246Z,23.72
2023-05-04T11:02:06.837Z,24.33
2023-05-04T11:04:35.724Z,23.08
2023-05-04T11:07:06.582Z,22.71
2023-05-04T11:09:40.857Z,21.03
2023-05-04T11:12:11.677Z,20.66
2023-05-04T11:14:43.295Z,21.74
2023-05-04T11:19:52.909Z,20.22
2023-05-04T11:22:21.333Z,20.78
2023-05-04T11:24:51.585Z,20.42
2023-05-04T11:27:24.394Z,20.41
2023-05-04T11:29:57.154Z,20.36
2023-05-04T11:32:35.606Z,21.09
2023-05-04T11:35:05.462Z,21.12
2023-05-04T11:37:40.614Z,21.50
2023-05-04T11:40:15.414Z,21.16
2023-05-04T11:42:44.436Z,20.77
2023-05-04T11:45:17.125Z,20.46
2023-05-04T11:47:46.213Z,19.58
2023-05-04T11:50:16.973Z,19.74
2023-05-04T11:52:45.547Z,19.91
2023-05-04T11:55:27.439Z,19.02
2023-05-04T11:57:59.772Z,19.49
2023-05-04T12:00:39.941Z,19.40
2023-05-04T12:03:09.629Z,19.82
2023-05-04T12:05:38.432Z,19.08
2023-05-04T12:08:12.492Z,19.28
2023-05-04T12:10:42.258Z,18.87
2023-05-04T12:13:19.500Z,18.86
2023-05-04T12:15:47.939Z,18.69
2023-05-04T12:18:23.237Z,18.94
2023-05-04T12:20:51.829Z,18.62
2023-05-04T12:23:20.122Z,18.63
2023-05-04T12:25:57.786Z,19.02
2023-05-04T12:28:27.862Z,18.74
2023-05-04T12:30:56.299Z,18.41
2023-05-04T12:33:24.999Z,18.94
2023-05-04T12:35:53.564Z,18.79
2023-05-04T12:38:23.285Z,19.17
2023-05-04T12:40:53.213Z,19.18
2023-05-04T12:43:23.198Z,18.93
2023-05-04T12:45:52.234Z,19.26
2023-05-04T12:48:21.663Z,18.65
2023-05-04T12:50:51.090Z,19.12
2023-05-04T12:53:22.385Z,19.02
2023-05-04T12:55:50.636Z,18.64
2023-05-04T12:58:20.485Z,18.52
2023-05-04T13:00:48.911Z,18.70
2023-05-04T13:03:18.229Z,18.38
2023-05-04T13:05:47.605Z,18.57
2023-05-04T13:08:15.863Z,18.79
2023-05-04T13:10:46.292Z,18.61
2023-05-04T13:13:16.364Z,18.10
2023-05-04T13:15:46.196Z,17.47
2023-05-04T13:18:14.513Z,17.51
2023-05-04T13:20:42.868Z,17.42
2023-05-04T13:23:11.171Z,17.02
2023-05-04T13:25:39.653Z,16.99
2023-05-04T13:28:07.901Z,16.70
2023-05-04T13:30:36.175Z,16.34
2023-05-04T13:33:16.797Z,16.52
2023-05-04T13:35:49.635Z,16.60
2023-05-04T13:38:18.013Z,15.96
2023-05-04T13:40:46.347Z,16.06
2023-05-04T13:43:15.563Z,16.06
2023-05-04T13:45:43.909Z,16.00
2023-05-04T13:48:13.601Z,15.96
2023-05-04T13:50:42.175Z,16.11
2023-05-04T13:53:11.387Z,15.72
2023-05-04T13:55:40.824Z,15.47
2023-05-04T13:58:09.131Z,15.79
2023-05-04T14:00:38.287Z,15.62
2023-05-04T14:03:06.749Z,15.48
2023-05-04T14:05:36.664Z,16.09
2023-05-04T14:08:05.040Z,16.15
2023-05-04T14:10:34.538Z,16.52
2023-05-04T14:13:04.411Z,16.54
2023-05-04T14:15:33.033Z,16.64
2023-05-04T14:18:01.426Z,16.78
2023-05-04T14:20:29.880Z,16.76
2023-05-04T14:22:59.582Z,16.77
2023-05-04T14:25:27.907Z,16.84
2023-05-04T14:27:56.247Z,16.68
2023-05-04T14:30:24.787Z,16.98
2023-05-04T14:32:55.285Z,17.02
2023-05-04T14:35:23.778Z,16.99
2023-05-04T14:37:52.137Z,17.11
2023-05-04T14:40:21.857Z,16.39
2023-05-04T14:42:50.128Z,16.81
2023-05-04T14:45:18.609Z,16.69
2023-05-04T14:47:47.436Z,17.00
2023-05-04T14:50:15.745Z,16.87
2023-05-04T14:52:44.144Z,17.00
2023-05-04T14:55:12.555Z,17.19
2023-05-04T14:57:42.688Z,16.42
2023-05-04T15:00:12.178Z,16.92
2023-05-04T15:02:40.613Z,16.85
2023-05-04T15:05:12.888Z,16.63
2023-05-04T15:07:41.411Z,15.93
2023-05-04T15:10:11.366Z,16.78
2023-05-04T15:12:41.425Z,16.91
2023-05-04T15:15:10.503Z,17.02
2023-05-04T15:17:38.837Z,17.35
2023-05-04T15:20:09.743Z,17.12
2023-05-04T15:22:38.402Z,17.51
2023-05-04T15:25:07.110Z,17.72
2023-05-04T15:27:35.581Z,17.69
2023-05-04T15:30:06.544Z,17.46
2023-05-04T15:32:34.919Z,17.37
2023-05-04T15:35:05.915Z,17.04
2023-05-04T15:37:34.946Z,17.09
2023-05-04T15:40:04.702Z,17.01
2023-05-04T15:42:33.447Z,17.11
2023-05-04T15:45:02.114Z,16.94
2023-05-04T15:47:32.346Z,17.15
2023-05-04T15:50:00.692Z,17.35
2023-05-04T15:52:29.051Z,17.22
2023-05-04T15:54:57.569Z,17.27
2023-05-04T15:57:26.358Z,17.58
2023-05-04T15:59:55.855Z,17.57
2023-05-04T16:02:24.334Z,17.25
2023-05-04T16:04:54.039Z,17.22
2023-05-04T16:07:22.306Z,17.36
2023-05-04T16:09:50.529Z,17.03
2023-05-04T16:12:20.574Z,16.83
2023-05-04T16:14:49.146Z,17.14
2023-05-04T16:17:17.726Z,17.05
2023-05-04T16:19:45.958Z,16.77
2023-05-04T16:22:15.930Z,16.50
2023-05-04T16:24:44.220Z,16.25
2023-05-04T16:27:12.653Z,16.04
2023-05-04T16:29:40.969Z,16.35
2023-05-04T16:32:09.599Z,16.01
2023-05-04T16:34:37.792Z,16.37
2023-05-04T16:37:06.171Z,16.04
2023-05-04T16:39:37.739Z,16.12
2023-05-04T16:42:06.347Z,16.06
2023-05-04T16:44:34.636Z,15.86
2023-05-04T16:47:02.942Z,15.83
2023-05-04T16:49:32.293Z,15.78
2023-05-04T16:52:00.562Z,15.64
2023-05-04T16:54:28.920Z,15.84
2023-05-04T16:56:58.671Z,16.05
2023-05-04T16:59:27.057Z,15.99
2023-05-04T17:01:55.590Z,16.03
2023-05-04T17:04:25.330Z,16.37
2023-05-04T17:06:53.598Z,16.51
2023-05-04T17:09:21.956Z,16.08
2023-05-04T17:11:50.333Z,15.97
2023-05-04T17:14:19.980Z,16.03
2023-05-04T17:16:48.334Z,15.57
2023-05-04T17:19:16.618Z,15.16
2023-05-04T17:21:44.913Z,15.64
2023-05-04T17:24:13.230Z,16.02
2023-05-04T17:26:41.539Z,15.71
2023-05-04T17:29:09.901Z,15.88
2023-05-04T17:31:39.820Z,16.14
2023-05-04T17:34:08.160Z,16.04
2023-05-04T17:36:36.399Z,15.78
2023-05-04T17:39:04.813Z,15.98
2023-05-04T17:41:33.114Z,16.09
2023-05-04T17:44:01.465Z,16.19
2023-05-04T17:46:30.789Z,16.20
2023-05-04T17:49:00.499Z,16.26
2023-05-04T17:51:28.718Z,16.24
2023-05-04T17:53:57.089Z,16.14
2023-05-04T17:56:25.367Z,16.20
2023-05-04T17:58:53.593Z,16.13
2023-05-04T18:01:22.078Z,15.93
2023-05-04T18:03:50.563Z,15.85
2023-05-04T18:06:20.389Z,15.79
2023-05-04T18:08:48.713Z,15.64
2023-05-04T18:11:17.045Z,15.74
2023-05-04T18:13:45.272Z,15.68
2023-05-04T18:16:13.830Z,15.73
2023-05-04T18:18:42.128Z,15.15
2023-05-04T18:21:10.433Z,15.20
2023-05-04T18:23:40.099Z,15.33
2023-05-04T18:26:08.418Z,15.67
2023-05-04T18:28:36.741Z,15.62
2023-05-04T18:31:05.403Z,15.83
2023-05-04T18:33:34.918Z,15.60
2023-05-04T18:36:03.595Z,15.46
2023-05-04T18:38:31.995Z,15.35
2023-05-04T18:41:01.744Z,15.57
2023-05-04T18:43:30.096Z,15.57
2023-05-04T18:45:58.531Z,14.67
2023-05-04T18:48:26.796Z,15.05
2023-05-04T18:50:57.405Z,14.84
2023-05-04T18:53:26.445Z,14.83
2023-05-04T18:56:06.069Z,14.77
2023-05-04T18:58:34.462Z,14.66
2023-05-04T19:01:02.772Z,14.90
2023-05-04T19:03:31.178Z,14.98
2023-05-04T19:05:59.733Z,14.89
2023-05-04T19:08:28.558Z,15.04
2023-05-04T19:10:59.306Z,14.91
2023-05-04T19:13:29.314Z,15.19
2023-05-04T19:15:57.590Z,14.86
2023-05-04T19:18:25.962Z,14.92
2023-05-04T19:20:54.927Z,14.92
2023-05-04T19:23:23.169Z,15.03
2023-05-04T19:25:51.627Z,14.85
2023-05-04T19:28:20.028Z,15.01
2023-05-04T19:30:49.954Z,15.19
2023-05-04T19:33:18.173Z,15.28
2023-05-04T19:35:46.489Z,15.41
2023-05-04T19:38:14.875Z,15.58
2023-05-04T19:40:43.365Z,15.54
2023-05-04T19:43:11.792Z,15.56
2023-05-04T19:45:41.108Z,15.50
2023-05-04T19:48:11.100Z,15.43
2023-05-04T19:50:39.317Z,15.32
2023-05-04T19:53:07.733Z,15.27
2023-05-04T19:55:36.366Z,15.22
2023-05-04T19:58:04.966Z,14.70
2023-05-04T20:00:33.617Z,15.13
2023-05-04T20:03:02.013Z,15.13
2023-05-04T20:05:31.793Z,14.94
2023-05-04T20:08:02.109Z,14.91
2023-05-04T20:10:31.711Z,15.25
2023-05-04T20:13:00.046Z,15.35
2023-05-04T20:15:28.454Z,15.38
2023-05-04T20:17:56.962Z,15.42
2023-05-04T20:20:25.262Z,15.53
2023-05-04T20:22:56.217Z,15.44
2023-05-04T20:25:25.314Z,15.50
2023-05-04T20:27:54.167Z,15.55
2023-05-04T20:30:22.518Z,15.54
2023-05-04T20:32:50.903Z,15.56
2023-05-04T20:35:19.341Z,15.59
2023-05-04T20:37:47.959Z,15.58
2023-05-04T20:40:18.402Z,15.50
2023-05-04T20:42:46.782Z,15.38
2023-05-04T20:45:15.076Z,15.32
2023-05-04T20:47:43.571Z,15.30
2023-05-04T20:50:12.934Z,15.09
2023-05-04T20:52:41.440Z,15.24
2023-05-04T20:55:10.511Z,14.59
2023-05-04T20:57:40.337Z,14.90
2023-05-04T21:00:09.970Z,14.86
2023-05-04T21:02:38.440Z,14.87
2023-05-04T21:05:07.661Z,15.05
2023-05-04T21:07:36.005Z,15.00
2023-05-04T21:10:05.127Z,14.83
2023-05-04T21:12:33.469Z,14.91
2023-05-04T21:15:03.142Z,14.89
2023-05-04T21:17:31.402Z,14.55
2023-05-04T21:19:59.776Z,15.00
2023-05-04T21:22:29.070Z,15.05
2023-05-04T21:24:57.339Z,14.92
2023-05-04T21:27:25.759Z,14.89
2023-05-04T21:29:53.920Z,14.91
2023-05-04T21:32:23.661Z,14.92
2023-05-04T21:34:53.584Z,14.16
2023-05-04T21:37:21.980Z,14.35
2023-05-04T21:39:55.229Z,14.01
2023-05-04T21:42:23.471Z,13.68
2023-05-04T21:44:55.250Z,13.88
2023-05-04T21:47:25.437Z,13.72
2023-05-04T21:49:54.309Z,13.45
2023-05-04T21:52:22.956Z,13.87
2023-05-04T21:54:51.467Z,13.66
2023-05-04T21:57:20.932Z,13.33
2023-05-04T21:59:49.832Z,13.23
2023-05-04T22:02:18.372Z,13.55
2023-05-04T22:04:48.028Z,13.49
2023-05-04T22:07:16.734Z,13.65
2023-05-04T22:09:45.011Z,13.58
2023-05-04T22:12:13.331Z,13.53
2023-05-04T22:14:42.534Z,13.53
2023-05-04T22:17:11.079Z,13.79
2023-05-04T22:19:39.520Z,14.14
2023-05-04T22:22:09.154Z,14.24
2023-05-04T22:24:37.434Z,14.34
2023-05-04T22:27:06.248Z,14.35
2023-05-04T22:29:35.778Z,14.34
2023-05-04T22:32:04.327Z,14.04
2023-05-04T22:34:32.630Z,13.75
2023-05-04T22:37:01.361Z,13.89
2023-05-04T22:39:31.001Z,14.10
2023-05-04T22:41:59.288Z,14.19
2023-05-04T22:44:27.597Z,13.96
2023-05-04T22:46:56.017Z,13.65
2023-05-04T22:49:24.241Z,13.31
2023-05-04T22:51:52.617Z,13.44
2023-05-04T22:54:20.871Z,13.41
2023-05-04T22:56:51.156Z,13.23
2023-05-04T22:59:19.415Z,13.21
2023-05-04T23:01:47.784Z,13.43
2023-05-04T23:04:16.534Z,13.42
2023-05-04T23:06:45.053Z,13.23
2023-05-04T23:09:14.858Z,13.69
2023-05-04T23:11:43.203Z,13.91
2023-05-04T23:14:13.059Z,14.01
2023-05-04T23:16:41.347Z,13.79
2023-05-04T23:19:09.591Z,13.66
2023-05-04T23:21:39.715Z,13.81
2023-05-04T23:24:08.529Z,13.81
2023-05-04T23:26:36.804Z,12.91
2023-05-04T23:29:05.105Z,12.84
2023-05-04T23:31:34.815Z,12.70
2023-05-04T23:34:03.126Z,12.72
2023-05-04T23:36:31.309Z,13.03
2023-05-04T23:38:59.619Z,13.29
2023-05-04T23:41:27.951Z,13.40
2023-05-04T23:43:56.642Z,13.48
2023-05-04T23:46:24.869Z,13.56
2023-05-04T23:48:54.589Z,13.75
2023-05-04T23:51:22.784Z,13.73
2023-05-04T23:53:51.043Z,13.65
2023-05-04T23:56:19.281Z,13.34
2023-05-04T23:58:47.560Z,13.32
